Time;durP1;ratioP1;P1;durP2;ratioP2;P2;SDS_P1;SDS_P2;PMS_P1;PMS_P2;Temp;Humidity;BMP_temperature;BMP_pressure;BME280_temperature;BME280_humidity;BME280_pressure;Samples;Min_cycle;Max_cycle;Signal;HPM_P1;HPM_P2
2022/07/20 00:00:35;;;;;;;4.30;2.88;;;26.50;92.30;;;;;;5112529;28;20044;-72
2022/07/20 00:03:11;;;;;;;6.90;2.85;;;26.30;93.10;;;;;;5079389;28;20040;-72
2022/07/20 00:05:38;;;;;;;8.52;2.97;;;26.30;93.10;;;;;;5079728;28;20036;-72
2022/07/20 00:08:04;;;;;;;5.70;2.78;;;26.20;93.00;;;;;;5079935;28;20372;-71
2022/07/20 00:13:15;;;;;;;9.07;3.38;;;26.00;93.30;;;;;;5079358;28;20051;-72
2022/07/20 00:15:42;;;;;;;4.25;3.05;;;25.90;92.80;;;;;;5079578;28;20044;-72
2022/07/20 00:18:08;;;;;;;7.13;2.83;;;25.90;93.20;;;;;;5078968;28;20049;-72
2022/07/20 00:20:35;;;;;;;4.10;2.58;;;25.80;93.20;;;;;;5079203;28;20110;-71
2022/07/20 00:23:01;;;;;;;5.47;2.70;;;25.70;93.30;;;;;;5078458;28;20052;-72
2022/07/20 00:25:28;;;;;;;6.88;2.95;;;25.70;93.30;;;;;;5079366;28;20068;-71
2022/07/20 00:27:53;;;;;;;6.43;2.63;;;25.70;93.50;;;;;;5079057;28;20105;-72
2022/07/20 00:30:20;;;;;;;7.20;2.70;;;25.70;93.60;;;;;;5111803;28;20458;-72
2022/07/20 00:32:45;;;;;;;3.90;2.70;;;25.50;93.40;;;;;;5078934;28;20094;-71
2022/07/20 00:35:13;;;;;;;9.75;2.95;;;25.50;93.50;;;;;;5078662;28;20365;-72
2022/07/20 00:37:40;;;;;;;4.72;2.47;;;25.40;92.90;;;;;;5078741;28;20047;-72
2022/07/20 00:40:07;;;;;;;8.00;2.58;;;25.40;93.80;;;;;;5077856;28;20049;-72
2022/07/20 00:42:34;;;;;;;5.07;2.70;;;25.40;93.60;;;;;;5078801;28;20442;-71
2022/07/20 00:45:00;;;;;;;7.10;3.13;;;25.30;93.70;;;;;;5078829;28;20087;-71
2022/07/20 00:47:26;;;;;;;4.32;2.78;;;25.20;93.60;;;;;;5079128;28;20052;-71
2022/07/20 00:49:51;;;;;;;5.38;2.72;;;25.20;93.90;;;;;;5078766;28;20036;-72
2022/07/20 00:52:17;;;;;;;5.43;3.08;;;25.20;93.90;;;;;;5078664;28;20037;-71
2022/07/20 00:54:45;;;;;;;6.20;3.00;;;25.20;93.80;;;;;;5078649;28;20115;-71
2022/07/20 00:57:11;;;;;;;6.15;3.08;;;25.10;94.00;;;;;;5078637;28;20051;-71
2022/07/20 00:59:37;;;;;;;4.43;2.67;;;25.10;93.90;;;;;;5078702;28;20441;-72
2022/07/20 01:02:03;;;;;;;5.03;2.75;;;25.00;94.10;;;;;;5078629;28;20040;-74
2022/07/20 01:04:29;;;;;;;7.15;3.30;;;25.00;93.80;;;;;;5078260;28;20417;-71
2022/07/20 01:06:55;;;;;;;7.18;3.10;;;24.90;93.80;;;;;;5078353;28;20040;-71
2022/07/20 01:09:21;;;;;;;6.95;3.28;;;25.00;93.70;;;;;;5078276;28;20052;-72
2022/07/20 01:11:47;;;;;;;5.93;2.47;;;24.90;93.90;;;;;;5078490;28;20105;-71
2022/07/20 01:14:12;;;;;;;7.35;2.72;;;24.80;94.00;;;;;;5078296;28;20432;-71
2022/07/20 01:16:39;;;;;;;5.40;2.70;;;24.90;94.10;;;;;;5078102;28;20034;-72
2022/07/20 01:19:08;;;;;;;7.15;3.25;;;24.90;94.00;;;;;;5078417;28;20041;-71
2022/07/20 01:21:41;;;;;;;3.33;2.60;;;24.90;94.00;;;;;;5078237;28;20041;-72
2022/07/20 01:24:12;;;;;;;9.23;3.05;;;24.90;94.00;;;;;;5077437;28;20115;-71
2022/07/20 01:26:41;;;;;;;6.85;2.75;;;24.90;94.00;;;;;;5077674;28;20048;-71
2022/07/20 01:29:08;;;;;;;5.95;3.05;;;24.70;93.90;;;;;;5077238;28;20048;-72
2022/07/20 01:31:33;;;;;;;10.98;3.08;;;24.70;94.10;;;;;;5078257;28;20048;-71
2022/07/20 01:33:59;;;;;;;5.43;2.80;;;24.60;94.10;;;;;;5077398;28;20040;-71
2022/07/20 01:36:25;;;;;;;6.32;3.05;;;24.60;94.10;;;;;;5077928;28;20417;-71
2022/07/20 01:38:50;;;;;;;5.00;2.95;;;24.60;94.00;;;;;;5077715;28;20047;-71
2022/07/20 01:41:17;;;;;;;6.45;3.20;;;24.60;94.00;;;;;;5077870;28;20043;-72
2022/07/20 01:43:43;;;;;;;7.88;3.33;;;24.50;94.10;;;;;;5077034;28;20037;-71
2022/07/20 01:46:08;;;;;;;5.25;2.80;;;24.50;94.30;;;;;;5077680;28;20101;-72
2022/07/20 01:48:34;;;;;;;5.18;3.30;;;24.50;94.40;;;;;;5076642;28;20051;-71
2022/07/20 01:51:00;;;;;;;5.47;2.53;;;24.50;94.30;;;;;;5076810;28;20116;-71
2022/07/20 01:53:25;;;;;;;6.43;3.00;;;24.40;94.20;;;;;;5077223;28;20040;-72
2022/07/20 01:55:52;;;;;;;8.32;3.05;;;24.40;94.40;;;;;;5077767;28;20071;-71
2022/07/20 01:58:18;;;;;;;5.45;2.88;;;24.30;94.30;;;;;;5076922;28;20042;-71
2022/07/20 02:00:43;;;;;;;4.30;2.92;;;24.20;94.30;;;;;;5077568;28;20071;-71
2022/07/20 02:03:09;;;;;;;7.05;2.80;;;24.10;94.30;;;;;;5076776;28;20071;-71
2022/07/20 02:05:35;;;;;;;6.95;3.17;;;24.10;94.40;;;;;;5077324;28;20049;-72
2022/07/20 02:08:01;;;;;;;4.82;2.90;;;24.10;94.20;;;;;;5077141;28;20406;-71
2022/07/20 02:10:27;;;;;;;5.60;3.05;;;24.10;94.50;;;;;;5076492;28;20329;-71
2022/07/20 02:12:52;;;;;;;6.22;3.40;;;24.00;94.20;;;;;;5077167;28;20032;-71
2022/07/20 02:18:07;;;;;;;7.35;2.97;;;24.00;94.20;;;;;;5076438;28;20051;-71
2022/07/20 02:20:33;;;;;;;6.15;3.10;;;23.90;94.10;;;;;;5076795;28;20121;-72
2022/07/20 02:22:59;;;;;;;4.28;2.83;;;23.90;94.20;;;;;;5076987;28;20044;-71
2022/07/20 02:25:24;;;;;;;6.60;3.08;;;23.80;94.00;;;;;;5077001;28;20374;-71
2022/07/20 02:27:50;;;;;;;7.43;3.10;;;23.80;94.20;;;;;;5076999;28;20033;-71
2022/07/20 02:30:16;;;;;;;7.90;2.92;;;23.70;94.30;;;;;;5075550;28;20115;-71
2022/07/20 02:32:41;;;;;;;4.53;3.28;;;23.60;94.30;;;;;;5076774;28;20036;-72
2022/07/20 02:35:07;;;;;;;6.80;2.90;;;23.60;94.30;;;;;;5076262;28;20041;-72
2022/07/20 02:37:33;;;;;;;7.32;3.08;;;23.60;94.30;;;;;;5076739;28;20040;-71
2022/07/20 02:39:59;;;;;;;5.90;3.00;;;23.60;94.10;;;;;;5076791;28;20028;-72
2022/07/20 02:42:24;;;;;;;4.40;3.03;;;23.50;94.30;;;;;;5076858;28;20421;-71
2022/07/20 02:44:50;;;;;;;8.32;3.17;;;23.60;94.40;;;;;;5076986;28;20421;-71
2022/07/20 02:47:16;;;;;;;11.52;3.00;;;23.50;94.50;;;;;;5076805;28;20033;-71
2022/07/20 02:49:41;;;;;;;6.82;3.15;;;23.50;94.30;;;;;;5076492;28;20115;-71
2022/07/20 02:52:07;;;;;;;8.55;3.25;;;23.40;93.80;;;;;;5075569;28;20052;-72
2022/07/20 02:54:32;;;;;;;5.95;3.20;;;23.30;94.50;;;;;;5076708;28;20405;-71
2022/07/20 02:56:58;;;;;;;7.55;2.95;;;23.40;94.60;;;;;;5076415;28;20032;-71
2022/07/20 02:59:24;;;;;;;7.43;3.30;;;23.40;94.50;;;;;;5075256;28;20044;-71
2022/07/20 03:01:51;;;;;;;3.90;2.63;;;23.40;94.50;;;;;;5075328;28;20046;-71
2022/07/20 03:04:17;;;;;;;6.65;3.30;;;23.50;94.60;;;;;;5075914;28;20055;-72
2022/07/20 03:06:42;;;;;;;7.00;3.30;;;23.40;94.30;;;;;;5076725;28;20119;-71
2022/07/20 03:09:08;;;;;;;8.70;3.10;;;23.30;94.60;;;;;;5075585;28;20394;-71
2022/07/20 03:11:34;;;;;;;10.35;3.25;;;23.20;94.90;;;;;;5075541;28;20445;-71
2022/07/20 03:13:59;;;;;;;5.90;3.10;;;23.30;94.20;;;;;;5076426;28;20040;-71
2022/07/20 03:16:25;;;;;;;7.75;3.15;;;23.30;94.70;;;;;;5076336;28;20311;-71
2022/07/20 03:18:51;;;;;;;4.88;3.05;;;23.20;94.70;;;;;;5076261;28;20043;-74
2022/07/20 03:21:17;;;;;;;6.97;3.38;;;23.20;94.70;;;;;;5075975;28;20390;-71
2022/07/20 03:23:42;;;;;;;8.27;3.05;;;23.20;94.60;;;;;;5075994;28;20070;-71
2022/07/20 03:26:08;;;;;;;8.10;3.58;;;23.20;94.90;;;;;;5076224;28;20071;-71
2022/07/20 03:28:34;;;;;;;7.68;3.50;;;23.10;94.70;;;;;;5076458;28;20178;-71
2022/07/20 03:30:59;;;;;;;5.82;3.05;;;23.10;94.60;;;;;;5076087;28;20052;-71
2022/07/20 03:33:25;;;;;;;6.05;3.10;;;23.20;94.80;;;;;;5075620;28;20388;-71
2022/07/20 03:35:51;;;;;;;6.30;2.95;;;23.20;94.70;;;;;;5075960;28;20038;-71
2022/07/20 03:38:16;;;;;;;6.68;3.15;;;23.20;94.60;;;;;;5075155;28;20115;-71
2022/07/20 03:40:42;;;;;;;10.40;3.10;;;23.20;94.60;;;;;;5076154;28;20029;-71
2022/07/20 03:43:08;;;;;;;9.57;3.50;;;23.30;94.40;;;;;;5091883;28;20083;-72
2022/07/20 03:45:33;;;;;;;5.72;3.50;;;23.20;94.20;;;;;;5076020;28;20043;-71
2022/07/20 03:47:59;;;;;;;6.82;3.17;;;23.30;94.30;;;;;;5076067;28;20050;-71
2022/07/20 03:50:25;;;;;;;6.20;3.10;;;23.20;94.50;;;;;;5074975;28;20106;-71
2022/07/20 03:52:51;;;;;;;4.97;3.00;;;23.10;94.20;;;;;;5074754;28;20056;-71
2022/07/20 03:55:17;;;;;;;8.00;3.38;;;23.10;94.60;;;;;;5076083;28;20047;-71
2022/07/20 03:57:43;;;;;;;6.25;3.13;;;23.00;94.50;;;;;;5108609;28;20111;-71
2022/07/20 04:00:09;;;;;;;5.53;3.00;;;23.00;94.40;;;;;;5076203;28;20064;-71
2022/07/20 04:02:35;;;;;;;8.45;3.50;;;22.90;94.30;;;;;;5076124;28;20369;-71
2022/07/20 04:05:01;;;;;;;6.45;3.17;;;22.90;94.50;;;;;;5075379;28;20039;-72
2022/07/20 04:07:29;;;;;;;7.60;3.30;;;23.00;94.50;;;;;;5076056;28;20375;-71
2022/07/20 04:09:55;;;;;;;10.57;3.72;;;23.10;94.00;;;;;;5074705;28;20119;-71
2022/07/20 04:12:24;;;;;;;6.22;2.90;;;23.10;94.20;;;;;;5075845;28;20119;-71
2022/07/20 04:14:51;;;;;;;8.80;3.05;;;23.20;94.20;;;;;;5075776;28;20351;-71
2022/07/20 04:17:17;;;;;;;5.45;3.17;;;23.20;94.60;;;;;;5075953;28;20333;-71
2022/07/20 04:19:43;;;;;;;6.95;3.45;;;23.20;94.50;;;;;;5075704;28;20036;-71
2022/07/20 04:22:09;;;;;;;6.35;3.22;;;23.20;93.90;;;;;;5079172;28;20037;-71
2022/07/20 04:24:35;;;;;;;6.20;3.22;;;23.20;94.00;;;;;;5079172;28;20040;-71
2022/07/20 04:27:01;;;;;;;11.32;3.30;;;23.20;94.30;;;;;;5079200;28;20423;-71
2022/07/20 04:29:28;;;;;;;7.78;3.00;;;23.20;93.70;;;;;;5078389;28;20413;-71
2022/07/20 04:31:54;;;;;;;8.32;3.08;;;23.20;94.30;;;;;;5078439;28;20127;-72
2022/07/20 04:34:19;;;;;;;6.82;3.10;;;23.10;94.10;;;;;;5077155;28;20132;-71
2022/07/20 04:36:45;;;;;;;6.60;3.20;;;23.20;94.20;;;;;;5078706;28;20128;-71
2022/07/20 04:39:11;;;;;;;5.63;2.85;;;23.30;93.30;;;;;;5078546;28;20068;-71
2022/07/20 04:41:37;;;;;;;5.97;3.10;;;23.30;94.50;;;;;;5078462;28;20094;-71
2022/07/20 04:44:03;;;;;;;6.28;3.10;;;23.20;94.00;;;;;;5078611;28;20337;-72
2022/07/20 04:46:29;;;;;;;6.10;3.40;;;23.40;94.20;;;;;;5111268;28;20368;-72
2022/07/20 04:48:55;;;;;;;5.05;3.05;;;23.50;94.50;;;;;;5111115;28;20052;-71
2022/07/20 04:51:21;;;;;;;7.50;3.45;;;23.60;94.20;;;;;;5078440;28;20080;-71
2022/07/20 04:53:46;;;;;;;5.68;2.60;;;23.70;94.40;;;;;;5078691;28;20079;-71
2022/07/20 04:56:12;;;;;;;6.20;2.90;;;23.80;94.50;;;;;;5078807;28;20377;-71
2022/07/20 04:58:38;;;;;;;4.65;2.67;;;23.90;94.50;;;;;;5078638;28;20087;-71
2022/07/20 05:01:03;;;;;;;5.28;3.10;;;24.10;94.50;;;;;;5078808;28;20171;-72
2022/07/20 05:03:29;;;;;;;5.32;3.75;;;24.20;94.60;;;;;;5076969;28;20434;-71
2022/07/20 05:05:55;;;;;;;6.75;2.70;;;24.20;94.60;;;;;;5076618;28;20071;-72
2022/07/20 05:08:20;;;;;;;7.45;3.00;;;24.30;94.80;;;;;;5077262;28;20201;-71
2022/07/20 05:10:46;;;;;;;10.15;3.40;;;24.40;94.50;;;;;;5078479;28;20051;-71
2022/07/20 05:13:12;;;;;;;7.35;3.35;;;24.50;94.50;;;;;;5078265;28;20311;-71
2022/07/20 05:15:37;;;;;;;8.07;3.15;;;24.50;94.30;;;;;;5078112;28;20120;-72
2022/07/20 05:18:03;;;;;;;7.00;3.25;;;24.40;94.30;;;;;;5078218;28;20093;-71
2022/07/20 05:20:29;;;;;;;7.93;3.17;;;24.40;94.40;;;;;;5078149;28;20036;-71
2022/07/20 05:22:54;;;;;;;10.40;3.45;;;24.70;94.80;;;;;;5078487;28;20405;-71
2022/07/20 05:25:20;;;;;;;5.47;3.20;;;25.00;94.40;;;;;;5078146;28;20046;-71
2022/07/20 05:27:46;;;;;;;6.25;3.00;;;25.00;94.40;;;;;;5078013;28;20123;-72
2022/07/20 05:30:12;;;;;;;7.88;3.33;;;25.20;94.40;;;;;;5077963;28;20437;-72
2022/07/20 05:32:37;;;;;;;6.28;2.90;;;25.30;94.90;;;;;;5075814;28;20068;-71
2022/07/20 05:35:04;;;;;;;5.80;2.85;;;25.30;94.40;;;;;;5077860;28;20322;-71
2022/07/20 05:37:30;;;;;;;7.03;3.08;;;25.40;94.10;;;;;;5077756;28;20047;-71
2022/07/20 05:39:55;;;;;;;4.40;3.10;;;25.50;94.10;;;;;;5077969;28;20036;-71
2022/07/20 05:42:21;;;;;;;6.50;3.15;;;25.60;94.60;;;;;;5076608;28;20036;-71
2022/07/20 05:44:47;;;;;;;5.32;3.17;;;25.70;94.30;;;;;;5077534;28;20037;-71
2022/07/20 05:47:13;;;;;;;7.60;3.22;;;25.80;94.40;;;;;;5077542;28;20177;-72
2022/07/20 05:49:38;;;;;;;7.78;3.60;;;25.90;94.10;;;;;;5077661;28;20044;-71
2022/07/20 05:52:04;;;;;;;6.80;3.22;;;26.00;94.30;;;;;;5076870;28;20429;-72
2022/07/20 05:54:30;;;;;;;6.72;3.50;;;26.10;94.40;;;;;;5077556;28;20043;-71
2022/07/20 05:56:56;;;;;;;7.15;3.40;;;26.20;94.70;;;;;;5077537;28;20040;-71
2022/07/20 05:59:22;;;;;;;6.55;3.72;;;26.20;93.90;;;;;;5077318;28;20043;-71
2022/07/20 06:01:47;;;;;;;9.15;3.72;;;26.20;93.40;;;;;;5077386;28;20036;-71
2022/07/20 06:04:14;;;;;;;7.25;3.40;;;26.20;93.70;;;;;;5076107;28;20032;-71
2022/07/20 06:06:40;;;;;;;5.97;3.35;;;26.40;93.90;;;;;;5077498;28;20128;-72
2022/07/20 06:09:08;;;;;;;4.53;3.17;;;26.50;93.80;;;;;;5077368;28;20032;-71
2022/07/20 06:11:34;;;;;;;10.23;3.70;;;26.70;94.00;;;;;;5077328;28;20310;-71
2022/07/20 06:14:00;;;;;;;10.35;3.95;;;26.80;94.30;;;;;;5077143;28;20082;-72
2022/07/20 06:16:27;;;;;;;10.85;3.38;;;26.80;93.50;;;;;;5076990;28;20083;-72
2022/07/20 06:18:52;;;;;;;10.45;3.95;;;26.80;93.60;;;;;;5076032;28;20040;-72
2022/07/20 06:21:18;;;;;;;8.13;3.20;;;27.00;93.30;;;;;;5076929;28;20043;-72
2022/07/20 06:23:44;;;;;;;6.75;3.63;;;27.00;93.50;;;;;;5076940;28;20036;-72
2022/07/20 06:26:09;;;;;;;8.82;3.30;;;27.10;93.80;;;;;;5075906;28;20063;-71
2022/07/20 06:28:36;;;;;;;10.18;3.42;;;27.20;93.80;;;;;;5075945;28;20042;-71
2022/07/20 06:31:03;;;;;;;8.57;3.95;;;27.20;93.30;;;;;;5076512;28;20056;-71
2022/07/20 06:33:28;;;;;;;8.23;3.60;;;27.30;93.60;;;;;;5076795;28;20059;-69
2022/07/20 06:35:54;;;;;;;7.43;3.65;;;27.30;93.50;;;;;;5076448;28;20033;-69
2022/07/20 06:38:20;;;;;;;11.30;3.70;;;27.10;93.40;;;;;;5076695;28;20033;-67
2022/07/20 06:40:45;;;;;;;10.70;3.72;;;27.20;93.60;;;;;;5076020;28;20040;-68
2022/07/20 06:43:11;;;;;;;7.60;3.47;;;27.40;93.60;;;;;;5076560;28;20360;-68
2022/07/20 06:45:37;;;;;;;8.35;3.80;;;27.50;93.70;;;;;;5077103;28;20123;-68
2022/07/20 06:48:03;;;;;;;5.93;3.58;;;27.60;93.50;;;;;;5076763;28;20036;-68
2022/07/20 06:50:29;;;;;;;7.63;3.60;;;27.70;93.70;;;;;;5076755;28;20485;-68
2022/07/20 06:52:54;;;;;;;6.78;4.15;;;27.70;93.50;;;;;;5076530;28;20380;-69
2022/07/20 06:55:20;;;;;;;5.50;3.10;;;27.90;93.60;;;;;;5081092;28;20495;-73
2022/07/20 06:57:46;;;;;;;5.38;3.72;;;27.90;93.80;;;;;;5075839;28;20036;-70
2022/07/20 07:00:13;;;;;;;5.65;3.72;;;28.10;93.90;;;;;;5076538;28;20036;-70
2022/07/20 07:02:39;;;;;;;6.22;3.25;;;28.30;94.10;;;;;;5076776;28;20310;-70
2022/07/20 07:05:06;;;;;;;10.35;4.20;;;28.50;94.30;;;;;;5074834;28;20391;-70
2022/07/20 07:07:31;;;;;;;7.85;3.97;;;28.60;94.00;;;;;;5076548;28;20109;-70
2022/07/20 07:09:57;;;;;;;7.72;3.70;;;28.60;93.60;;;;;;5076389;28;20123;-70
2022/07/20 07:12:23;;;;;;;10.10;3.58;;;28.60;93.60;;;;;;5076267;28;20041;-70
2022/07/20 07:14:49;;;;;;;8.65;3.97;;;28.70;93.80;;;;;;5076181;28;20043;-69
2022/07/20 07:17:16;;;;;;;8.93;4.10;;;28.80;93.50;;;;;;5076324;28;20417;-70
2022/07/20 07:19:41;;;;;;;7.45;4.40;;;28.80;93.20;;;;;;5076555;28;20295;-71
2022/07/20 07:22:08;;;;;;;11.52;4.43;;;28.90;93.50;;;;;;5076304;28;20116;-72
2022/07/20 07:24:34;;;;;;;8.90;4.50;;;28.90;93.40;;;;;;5076509;28;20083;-70
2022/07/20 07:27:00;;;;;;;8.40;4.10;;;28.90;93.10;;;;;;5076540;28;20413;-70
2022/07/20 07:29:26;;;;;;;14.75;4.50;;;29.00;93.60;;;;;;5075949;28;20393;-70
2022/07/20 07:31:53;;;;;;;13.02;4.78;;;29.10;93.40;;;;;;5076302;28;20368;-68
2022/07/20 07:34:19;;;;;;;8.73;4.07;;;29.20;93.60;;;;;;5075917;28;20315;-69
2022/07/20 07:36:44;;;;;;;11.25;4.47;;;29.30;93.50;;;;;;5076011;28;20119;-68
2022/07/20 07:39:10;;;;;;;9.50;4.57;;;29.30;93.50;;;;;;5076199;28;20035;-68
2022/07/20 07:41:36;;;;;;;10.02;4.90;;;29.30;93.60;;;;;;5076119;28;20028;-73
2022/07/20 07:44:02;;;;;;;10.98;4.97;;;29.40;93.60;;;;;;5076111;28;20040;-69
2022/07/20 07:46:28;;;;;;;12.45;5.18;;;29.30;93.50;;;;;;5076306;28;20043;-72
2022/07/20 07:48:54;;;;;;;8.27;4.60;;;29.30;93.70;;;;;;5075970;28;20028;-72
2022/07/20 07:51:20;;;;;;;11.70;5.40;;;29.40;93.80;;;;;;5075971;28;20040;-69
2022/07/20 07:53:45;;;;;;;7.85;4.75;;;29.50;94.00;;;;;;5074807;28;20059;-69
2022/07/20 07:56:12;;;;;;;11.50;4.70;;;29.70;93.80;;;;;;5077929;28;20033;-70
2022/07/20 07:58:38;;;;;;;7.35;4.97;;;29.80;94.20;;;;;;5079623;28;20153;-71
2022/07/20 08:01:04;;;;;;;7.72;5.00;;;29.80;94.10;;;;;;5094640;28;20040;-74
2022/07/20 08:03:30;;;;;;;10.30;5.63;;;29.90;94.10;;;;;;5099653;28;20097;-71
2022/07/20 08:06:02;;;;;;;15.25;6.45;;;30.00;94.40;;;;;;5098387;28;20052;-70
2022/07/20 08:08:28;;;;;;;14.75;7.15;;;30.10;94.50;;;;;;5099087;28;20101;-71
2022/07/20 08:10:54;;;;;;;16.92;7.47;;;30.00;94.70;;;;;;5099705;28;20119;-73
2022/07/20 08:13:20;;;;;;;15.65;7.45;;;29.90;94.70;;;;;;5098644;28;20398;-70
2022/07/20 08:15:46;;;;;;;16.30;8.15;;;29.90;94.60;;;;;;5099648;28;20036;-73
2022/07/20 08:18:11;;;;;;;15.68;7.90;;;29.90;94.90;;;;;;5098515;28;20067;-74
2022/07/20 08:20:37;;;;;;;14.20;7.95;;;29.90;95.00;;;;;;5099886;28;20074;-73
2022/07/20 08:23:03;;;;;;;13.38;8.77;;;30.00;95.30;;;;;;5099683;28;20124;-73
2022/07/20 08:25:29;;;;;;;12.95;8.43;;;29.90;95.00;;;;;;5098717;28;20040;-74
2022/07/20 08:27:55;;;;;;;22.02;9.80;;;29.60;95.20;;;;;;5099277;28;20464;-75
2022/07/20 08:30:21;;;;;;;14.85;8.63;;;29.70;95.50;;;;;;5098517;28;20136;-73
2022/07/20 08:32:46;;;;;;;17.05;8.85;;;29.90;95.70;;;;;;5099484;28;20383;-74
2022/07/20 08:35:12;;;;;;;15.23;9.15;;;30.00;95.80;;;;;;5097908;28;20043;-73
2022/07/20 08:37:39;;;;;;;16.17;10.00;;;30.20;95.90;;;;;;5098351;28;20040;-73
2022/07/20 08:40:06;;;;;;;15.60;10.32;;;30.40;95.80;;;;;;5099527;28;20336;-75
2022/07/20 08:42:32;;;;;;;19.42;12.05;;;30.40;95.80;;;;;;5098371;28;20051;-73
2022/07/20 08:44:58;;;;;;;29.95;13.75;;;30.40;95.80;;;;;;5099455;28;20044;-73
2022/07/20 08:47:28;;;;;;;22.70;13.07;;;29.90;95.80;;;;;;5099147;28;20332;-73
2022/07/20 08:49:54;;;;;;;23.70;12.95;;;29.60;96.10;;;;;;5099283;28;20039;-74
2022/07/20 08:52:20;;;;;;;21.65;13.52;;;29.80;96.40;;;;;;5080997;28;20048;-74
2022/07/20 08:54:46;;;;;;;21.73;13.52;;;30.00;96.70;;;;;;5098910;28;20118;-74
2022/07/20 08:57:16;;;;;;;26.20;13.95;;;30.10;96.60;;;;;;5099199;28;20040;-73
2022/07/20 08:59:43;;;;;;;21.85;14.15;;;30.10;96.70;;;;;;5099155;28;20389;-73
2022/07/20 09:02:10;;;;;;;27.45;14.88;;;30.20;96.70;;;;;;5099101;28;20040;-73
2022/07/20 09:04:50;;;;;;;26.60;15.95;;;30.20;96.80;;;;;;5097574;28;20388;-73
2022/07/20 09:07:16;;;;;;;28.70;16.45;;;30.10;96.70;;;;;;5098491;28;20106;-74
2022/07/20 09:09:42;;;;;;;29.73;17.10;;;29.90;96.90;;;;;;5098958;28;20036;-73
2022/07/20 09:12:07;;;;;;;29.77;16.30;;;29.70;96.90;;;;;;5098807;28;20036;-74
2022/07/20 09:14:52;;;;;;;28.88;17.00;;;29.80;97.20;;;;;;5097596;28;20333;-73
2022/07/20 09:17:22;;;;;;;29.90;18.77;;;29.90;97.30;;;;;;5097601;28;20040;-74
2022/07/20 09:19:59;;;;;;;25.77;18.00;;;30.00;97.30;;;;;;5098758;28;20038;-74
2022/07/20 09:22:34;;;;;;;29.05;18.35;;;30.00;97.20;;;;;;5098654;28;20047;-74
2022/07/20 09:25:12;;;;;;;31.73;19.30;;;30.00;97.40;;;;;;5098523;28;20051;-73
2022/07/20 09:27:39;;;;;;;29.50;19.33;;;30.30;97.40;;;;;;5098464;28;20036;-73
2022/07/20 09:30:14;;;;;;;27.02;18.60;;;30.30;97.40;;;;;;5097978;28;20395;-73
2022/07/20 09:32:53;;;;;;;31.27;19.42;;;30.10;97.50;;;;;;5098548;28;20105;-73
2022/07/20 09:35:20;;;;;;;31.35;19.30;;;30.00;97.10;;;;;;5097683;28;20311;-73
2022/07/20 09:37:46;;;;;;;30.23;19.55;;;30.20;97.40;;;;;;5098274;28;20032;-73
2022/07/20 09:40:13;;;;;;;35.95;19.83;;;30.20;97.40;;;;;;5098135;28;20043;-73
2022/07/20 09:42:43;;;;;;;34.03;20.73;;;30.40;97.50;;;;;;5098013;28;20122;-73
2022/07/20 09:45:29;;;;;;;29.00;20.52;;;30.60;97.90;;;;;;5096988;28;20048;-73
2022/07/20 09:48:04;;;;;;;26.52;19.17;;;30.60;97.50;;;;;;5098092;28;20111;-74
2022/07/20 09:50:32;;;;;;;34.08;21.77;;;30.60;97.80;;;;;;5098137;28;20044;-74
2022/07/20 09:52:58;;;;;;;34.20;21.98;;;30.50;97.80;;;;;;5097925;28;20111;-73
2022/07/20 09:55:25;;;;;;;33.15;21.40;;;30.80;97.90;;;;;;5097942;28;20390;-73
2022/07/20 09:57:52;;;;;;;30.40;20.98;;;30.80;98.00;;;;;;5098088;28;20058;-73
2022/07/20 10:00:21;;;;;;;37.08;21.77;;;31.00;97.80;;;;;;5096693;28;20085;-73
2022/07/20 10:02:48;;;;;;;30.73;21.38;;;30.80;97.90;;;;;;5096608;28;20051;-73
2022/07/20 10:05:18;;;;;;;33.55;21.17;;;31.10;98.20;;;;;;5097285;28;20036;-74
2022/07/20 10:07:45;;;;;;;31.38;20.67;;;31.10;97.90;;;;;;5097852;28;20108;-75
2022/07/20 10:10:11;;;;;;;34.92;21.02;;;31.30;97.50;;;;;;5097662;28;20043;-73
2022/07/20 10:12:37;;;;;;;33.63;21.10;;;31.20;97.20;;;;;;5097592;28;20428;-73
2022/07/20 10:15:18;;;;;;;31.48;18.80;;;30.90;97.40;;;;;;5079692;28;20043;-73
2022/07/20 10:17:45;;;;;;;32.38;19.05;;;30.80;97.00;;;;;;5097414;28;20040;-73
2022/07/20 10:20:31;;;;;;;34.22;17.63;;;30.80;97.10;;;;;;5097201;28;20036;-73
2022/07/20 10:23:15;;;;;;;23.67;17.48;;;30.80;96.20;;;;;;5097251;28;20040;-73
2022/07/20 10:25:45;;;;;;;25.15;17.75;;;30.40;95.80;;;;;;5097180;28;20139;-73
2022/07/20 10:28:23;;;;;;;29.73;16.52;;;30.50;95.90;;;;;;5097668;28;20040;-73
2022/07/20 10:30:57;;;;;;;27.08;16.30;;;30.50;95.60;;;;;;5096928;28;20051;-73
2022/07/20 10:33:24;;;;;;;23.88;16.48;;;30.60;95.80;;;;;;5097118;28;20050;-73
2022/07/20 10:35:50;;;;;;;26.27;16.50;;;30.70;95.90;;;;;;5096674;28;20047;-73
2022/07/20 10:38:21;;;;;;;27.35;16.30;;;30.70;95.60;;;;;;5097325;28;20036;-73
2022/07/20 10:44:22;;;;;;;25.75;16.05;;;30.60;95.50;;;;;;5095862;28;20044;-73
2022/07/20 10:46:49;;;;;;;25.52;15.27;;;30.80;95.70;;;;;;5097017;28;20076;-73
2022/07/20 10:49:16;;;;;;;23.95;14.77;;;31.00;95.60;;;;;;5096769;28;20046;-73
2022/07/20 10:51:42;;;;;;;22.00;14.90;;;31.00;95.30;;;;;;5095756;28;20044;-73
2022/07/20 10:54:36;;;;;;;24.52;14.23;;;30.90;95.60;;;;;;5096749;28;20440;-73
2022/07/20 10:57:03;;;;;;;28.95;14.90;;;31.30;95.80;;;;;;5096887;28;20106;-73
2022/07/20 10:59:29;;;;;;;21.83;13.05;;;31.40;95.50;;;;;;5097047;28;20044;-73
2022/07/20 11:01:54;;;;;;;22.33;12.52;;;31.30;95.60;;;;;;5096777;28;20034;-73
2022/07/20 11:04:21;;;;;;;18.08;11.70;;;31.50;95.60;;;;;;5095139;28;20421;-73
2022/07/20 11:06:48;;;;;;;17.65;11.73;;;31.50;94.90;;;;;;5096775;28;20081;-73
2022/07/20 11:09:15;;;;;;;17.30;10.57;;;31.20;94.70;;;;;;5096882;28;20115;-73
2022/07/20 11:11:41;;;;;;;18.48;10.55;;;30.80;94.50;;;;;;5095670;28;20105;-73
2022/07/20 11:14:10;;;;;;;16.52;11.35;;;30.90;94.60;;;;;;5096615;28;20036;-74
2022/07/20 11:16:38;;;;;;;15.00;10.15;;;31.20;94.90;;;;;;5096439;28;20425;-74
2022/07/20 11:19:05;;;;;;;14.43;9.73;;;31.30;94.90;;;;;;5096629;28;20093;-73
2022/07/20 11:21:49;;;;;;;16.35;10.02;;;31.40;94.70;;;;;;5095548;28;20055;-73
2022/07/20 11:24:26;;;;;;;12.75;9.40;;;31.60;94.80;;;;;;5096431;28;20310;-73
2022/07/20 11:26:52;;;;;;;16.48;9.77;;;31.70;94.70;;;;;;5096718;28;20040;-73
2022/07/20 11:29:18;;;;;;;15.55;9.18;;;31.80;95.10;;;;;;5096285;28;20044;-74
2022/07/20 11:31:43;;;;;;;18.30;9.32;;;32.00;94.90;;;;;;5098168;28;20226;-73
2022/07/20 11:34:12;;;;;;;18.70;10.52;;;31.80;95.10;;;;;;5100215;28;20421;-74
2022/07/20 11:36:38;;;;;;;19.27;9.23;;;32.20;95.10;;;;;;5100424;28;20105;-74
2022/07/20 11:39:07;;;;;;;14.48;8.93;;;32.30;94.90;;;;;;5100778;28;20306;-73
2022/07/20 11:41:35;;;;;;;16.30;9.48;;;32.40;94.80;;;;;;5099370;28;20039;-73
2022/07/20 11:44:02;;;;;;;14.05;9.25;;;32.10;94.90;;;;;;5100342;28;20050;-73
2022/07/20 11:46:42;;;;;;;16.60;10.13;;;32.40;95.10;;;;;;5099289;28;20415;-73
2022/07/20 11:49:14;;;;;;;17.20;10.45;;;32.80;95.20;;;;;;5100239;28;20040;-73
2022/07/20 11:51:42;;;;;;;16.10;10.48;;;33.20;95.30;;;;;;5100508;28;20164;-73
2022/07/20 11:54:08;;;;;;;15.48;10.48;;;33.10;94.90;;;;;;5100227;28;20071;-74
2022/07/20 11:56:36;;;;;;;18.55;10.30;;;33.10;95.10;;;;;;5099393;28;20028;-73
2022/07/20 11:59:05;;;;;;;16.20;10.07;;;33.00;94.90;;;;;;5100226;28;20071;-73
2022/07/20 12:01:35;;;;;;;17.27;9.70;;;33.00;94.60;;;;;;5100046;28;20040;-73
2022/07/20 12:04:13;;;;;;;13.77;8.85;;;32.80;95.30;;;;;;5099123;28;20048;-73
2022/07/20 12:06:41;;;;;;;12.80;8.70;;;32.70;94.60;;;;;;5099966;28;20092;-74
2022/07/20 12:09:11;;;;;;;11.80;7.97;;;32.40;94.20;;;;;;5099821;28;20047;-73
2022/07/20 12:12:04;;;;;;;12.18;8.43;;;32.10;94.20;;;;;;5100026;28;20123;-74
2022/07/20 12:14:36;;;;;;;12.60;8.00;;;31.90;94.20;;;;;;5099084;28;20048;-74
2022/07/20 12:17:20;;;;;;;13.77;7.75;;;32.20;94.30;;;;;;5099716;28;20040;-73
2022/07/20 12:19:49;;;;;;;11.60;8.10;;;32.40;94.30;;;;;;5099984;28;20032;-74
2022/07/20 12:22:16;;;;;;;12.60;8.63;;;32.90;94.70;;;;;;5099701;28;20047;-73
2022/07/20 12:25:05;;;;;;;11.60;8.05;;;32.80;94.70;;;;;;5099736;28;20036;-74
2022/07/20 12:27:32;;;;;;;11.07;6.60;;;32.70;94.50;;;;;;5099525;28;20043;-73
2022/07/20 12:29:59;;;;;;;10.40;6.82;;;32.30;93.50;;;;;;5098869;28;20056;-73
2022/07/20 12:32:33;;;;;;;13.70;7.43;;;32.10;93.70;;;;;;5098515;28;20341;-73
2022/07/20 12:35:05;;;;;;;13.20;7.30;;;32.30;93.90;;;;;;5097903;28;20311;-73
2022/07/20 12:37:48;;;;;;;15.38;7.40;;;32.20;93.80;;;;;;5097363;28;20071;-74
2022/07/20 12:40:45;;;;;;;15.95;7.30;;;32.70;93.90;;;;;;5097950;28;20130;-73
2022/07/20 12:43:35;;;;;;;13.02;8.00;;;33.30;93.90;;;;;;5097994;28;20050;-73
2022/07/20 12:46:06;;;;;;;13.18;7.97;;;33.40;94.00;;;;;;5098193;28;20039;-73
2022/07/20 12:48:32;;;;;;;15.15;8.45;;;33.50;94.40;;;;;;5097881;28;20036;-73
2022/07/20 12:50:58;;;;;;;11.40;7.97;;;33.80;93.70;;;;;;5098162;28;20044;-73